Time;durP1;ratioP1;P1;durP2;ratioP2;P2;SDS_P1;SDS_P2;PMS_P1;PMS_P2;Temp;Humidity;BMP_temperature;BMP_pressure;BME280_temperature;BME280_humidity;BME280_pressure;Samples;Min_cycle;Max_cycle;Signal;HPM_P1;HPM_P2
2020/12/25 00:02:02;;;;;;;32.97;20.95;;;;;;;11.57;59.26;93536.56;5030298;28;20380;-78
2020/12/25 00:04:28;;;;;;;33.22;22.75;;;;;;;11.59;59.18;93528.31;5014984;28;20069;-77
2020/12/25 00:06:53;;;;;;;34.20;20.15;;;;;;;11.57;59.39;93518.03;5016178;28;20083;-77
2020/12/25 00:09:19;;;;;;;29.15;19.77;;;;;;;11.58;59.06;93530.19;5017132;28;20589;-77
2020/12/25 00:11:44;;;;;;;34.17;20.42;;;;;;;11.51;60.14;93529.81;5027470;28;20573;-77
2020/12/25 00:14:11;;;;;;;36.33;21.30;;;;;;;11.56;60.36;93535.00;5029427;28;20493;-77
2020/12/25 00:16:36;;;;;;;32.97;20.63;;;;;;;11.42;59.19;93513.09;5027070;28;20088;-77
2020/12/25 00:19:03;;;;;;;36.30;24.55;;;;;;;11.52;59.40;93520.03;5023341;28;20116;-77
2020/12/25 00:21:28;;;;;;;36.75;23.02;;;;;;;11.48;59.78;93525.16;5030864;28;20023;-77
2020/12/25 00:23:54;;;;;;;32.60;21.33;;;;;;;11.53;59.53;93527.66;5027895;28;20049;-77
2020/12/25 00:26:23;;;;;;;40.97;25.77;;;;;;;11.54;59.33;93546.94;5026746;28;20068;-77
2020/12/25 00:28:49;;;;;;;34.40;22.90;;;;;;;11.45;59.84;93538.97;5028090;28;20039;-77
2020/12/25 00:31:34;;;;;;;36.95;22.80;;;;;;;11.45;59.71;93548.75;5027185;28;20426;-77
2020/12/25 00:34:05;;;;;;;33.55;22.25;;;;;;;11.41;59.80;93559.16;5015190;28;20105;-77
2020/12/25 00:36:39;;;;;;;32.17;21.58;;;;;;;11.36;59.89;93550.56;5015958;28;20345;-77
2020/12/25 00:39:10;;;;;;;37.25;22.77;;;;;;;11.42;59.60;93560.72;5028676;28;20024;-77
2020/12/25 00:41:49;;;;;;;28.05;20.02;;;;;;;11.35;59.60;93563.00;5027290;28;20067;-77
2020/12/25 00:44:16;;;;;;;31.35;19.15;;;;;;;11.33;59.95;93549.31;5027396;28;20063;-78
2020/12/25 00:46:43;;;;;;;35.30;22.15;;;;;;;11.16;60.59;93552.56;5030723;28;20532;-78
2020/12/25 00:49:10;;;;;;;30.95;20.75;;;;;;;11.19;60.91;93525.50;5032936;28;20043;-77
2020/12/25 00:51:36;;;;;;;34.38;22.70;;;;;;;11.26;61.07;93531.19;5031542;28;20372;-77
2020/12/25 00:54:01;;;;;;;34.45;21.75;;;;;;;11.32;60.57;93554.88;5031031;28;20028;-77
2020/12/25 00:56:27;;;;;;;30.35;19.45;;;;;;;11.30;60.21;93545.38;5013573;28;20045;-77
2020/12/25 00:58:52;;;;;;;32.17;20.77;;;;;;;11.38;60.37;93549.19;5015835;28;20537;-77
2020/12/25 01:01:18;;;;;;;29.17;19.45;;;;;;;11.41;59.92;93553.88;5033242;28;20056;-77
2020/12/25 01:03:45;;;;;;;34.33;20.85;;;;;;;11.40;59.60;93546.22;5037026;28;20032;-76
2020/12/25 01:06:16;;;;;;;29.63;19.60;;;;;;;11.37;60.19;93539.69;5035578;28;20505;-77
2020/12/25 01:08:43;;;;;;;45.95;28.02;;;;;;;11.38;59.98;93554.47;5013641;28;20472;-76
2020/12/25 01:11:09;;;;;;;29.40;20.00;;;;;;;11.32;59.92;93529.22;5030316;28;20136;-77
2020/12/25 01:13:37;;;;;;;30.98;19.35;;;;;;;11.38;60.79;93554.47;5030566;28;20338;-77
2020/12/25 01:16:04;;;;;;;29.90;18.48;;;;;;;11.43;60.04;93535.84;5032165;28;20442;-77
2020/12/25 01:18:30;;;;;;;30.77;18.50;;;;;;;11.45;60.02;93544.25;5035988;28;20535;-77
2020/12/25 01:20:56;;;;;;;35.47;20.90;;;;;;;11.46;59.92;93534.44;5032278;28;20059;-77
2020/12/25 01:23:22;;;;;;;21.75;16.35;;;;;;;11.49;59.72;93521.41;5033266;28;20047;-76
2020/12/25 01:25:47;;;;;;;25.67;17.70;;;;;;;11.47;59.63;93517.50;5031663;28;20037;-77
2020/12/25 01:28:13;;;;;;;26.80;16.65;;;;;;;11.52;59.81;93512.88;5023862;28;20404;-77
2020/12/25 01:30:38;;;;;;;26.08;17.30;;;;;;;11.56;59.61;93513.81;5033620;28;20102;-77
2020/12/25 01:33:03;;;;;;;26.95;16.92;;;;;;;11.61;59.26;93502.34;5029443;28;20115;-77
2020/12/25 01:35:29;;;;;;;24.90;16.40;;;;;;;11.62;59.45;93504.69;5011060;28;20088;-77
2020/12/25 01:37:54;;;;;;;23.60;17.13;;;;;;;11.68;58.87;93506.13;5029889;28;20043;-77
2020/12/25 01:40:20;;;;;;;24.95;16.55;;;;;;;11.77;59.04;93505.44;5031676;28;20514;-77
2020/12/25 01:42:46;;;;;;;29.60;19.48;;;;;;;11.77;59.45;93502.78;5033022;28;20606;-78
2020/12/25 01:45:11;;;;;;;27.40;19.10;;;;;;;11.69;58.78;93507.69;5034446;28;20017;-77
2020/12/25 01:47:37;;;;;;;31.20;21.08;;;;;;;11.77;58.08;93518.66;5033149;28;20394;-77
2020/12/25 01:50:04;;;;;;;42.53;25.60;;;;;;;11.71;58.12;93521.41;5036520;28;20045;-76
2020/12/25 01:52:31;;;;;;;33.85;22.88;;;;;;;11.64;59.08;93515.75;5037777;28;20065;-77
2020/12/25 01:54:58;;;;;;;31.05;19.88;;;;;;;11.65;58.83;93512.03;5033692;28;20041;-77
2020/12/25 01:57:24;;;;;;;41.53;24.23;;;;;;;11.59;58.57;93512.44;5019725;28;20168;-77
2020/12/25 01:59:52;;;;;;;45.45;24.85;;;;;;;11.53;59.04;93503.81;5024341;28;20124;-77
2020/12/25 02:02:17;;;;;;;37.50;22.70;;;;;;;11.54;59.57;93513.34;5033792;28;20120;-76
2020/12/25 02:04:43;;;;;;;34.63;19.67;;;;;;;11.54;58.80;93505.41;5025817;28;20125;-77
2020/12/25 02:07:09;;;;;;;31.75;18.60;;;;;;;11.42;59.02;93496.44;5029059;28;20493;-77
2020/12/25 02:09:34;;;;;;;26.17;16.98;;;;;;;11.32;59.71;93500.09;5018420;28;20085;-77
2020/12/25 02:12:00;;;;;;;24.40;16.95;;;;;;;11.30;59.52;93494.31;5019806;28;20020;-77
2020/12/25 02:14:26;;;;;;;28.63;16.52;;;;;;;11.38;59.38;93500.78;5031420;28;20045;-76
2020/12/25 02:16:52;;;;;;;24.45;18.08;;;;;;;11.36;59.46;93492.34;5029722;28;20091;-76
2020/12/25 02:19:17;;;;;;;31.02;18.23;;;;;;;11.32;59.59;93497.47;5017860;28;20273;-76
2020/12/25 02:21:43;;;;;;;23.83;16.60;;;;;;;11.37;60.05;93484.13;5030452;28;20037;-77
2020/12/25 02:24:09;;;;;;;29.17;17.05;;;;;;;11.35;59.79;93480.97;5032790;28;20024;-77
2020/12/25 02:26:36;;;;;;;26.50;18.30;;;;;;;11.42;59.33;93497.22;5013252;28;20033;-77
2020/12/25 02:29:03;;;;;;;33.00;19.60;;;;;;;11.44;59.30;93499.56;5019224;28;20053;-77
2020/12/25 02:31:28;;;;;;;35.28;20.20;;;;;;;11.32;59.34;93489.53;5015140;28;20772;-77
2020/12/25 02:33:54;;;;;;;36.83;20.80;;;;;;;11.34;59.45;93494.53;5017745;28;20041;-77
2020/12/25 02:36:19;;;;;;;37.03;23.60;;;;;;;11.35;59.29;93507.44;5036039;28;20063;-77
2020/12/25 02:38:45;;;;;;;34.83;21.27;;;;;;;11.33;58.75;93490.31;5013577;28;20045;-76
2020/12/25 02:41:10;;;;;;;45.17;25.63;;;;;;;11.32;58.81;93508.03;5028692;28;20048;-77
2020/12/25 02:43:36;;;;;;;33.55;20.20;;;;;;;11.26;59.29;93517.16;5030806;28;20124;-77
2020/12/25 02:46:01;;;;;;;27.80;18.77;;;;;;;11.17;59.49;93495.94;5031679;28;20481;-78
2020/12/25 02:48:27;;;;;;;34.25;21.48;;;;;;;11.15;59.45;93492.81;5030718;28;20036;-77
2020/12/25 02:50:53;;;;;;;47.17;25.65;;;;;;;11.10;59.28;93479.69;5014667;28;20053;-77
2020/12/25 02:53:18;;;;;;;24.48;16.73;;;;;;;11.00;59.86;93476.50;5017426;28;20045;-77
2020/12/25 02:55:44;;;;;;;26.25;17.98;;;;;;;10.93;60.38;93484.06;5029405;28;20048;-77
2020/12/25 02:58:09;;;;;;;26.30;16.15;;;;;;;10.84;60.56;93461.00;5033583;28;20049;-78
2020/12/25 03:00:35;;;;;;;21.95;15.55;;;;;;;10.84;61.17;93455.72;5031880;28;20048;-77
2020/12/25 03:03:01;;;;;;;26.58;18.27;;;;;;;10.92;61.16;93472.72;5017043;28;20086;-77
2020/12/25 03:05:26;;;;;;;26.42;17.20;;;;;;;10.93;60.30;93465.56;5027871;28;20053;-77
2020/12/25 03:07:52;;;;;;;26.35;17.05;;;;;;;10.86;60.95;93469.38;5031026;28;20076;-77
2020/12/25 03:10:17;;;;;;;27.00;18.38;;;;;;;10.89;60.81;93451.38;5017555;28;20037;-76
2020/12/25 03:12:43;;;;;;;24.55;16.88;;;;;;;10.86;60.37;93453.53;5024480;28;20037;-77
2020/12/25 03:15:11;;;;;;;19.55;13.35;;;;;;;10.84;61.09;93450.41;5016228;28;20068;-78
2020/12/25 03:17:42;;;;;;;25.75;16.17;;;;;;;10.96;60.65;93467.59;5012157;28;20040;-76
2020/12/25 03:20:08;;;;;;;25.08;16.05;;;;;;;10.94;60.50;93453.91;5032156;28;20045;-78
2020/12/25 03:22:33;;;;;;;30.52;17.55;;;;;;;10.93;60.72;93457.63;5018326;28;20666;-76
2020/12/25 03:24:59;;;;;;;30.73;20.33;;;;;;;10.83;60.31;93448.84;5031385;28;20029;-76
2020/12/25 03:27:24;;;;;;;23.15;15.57;;;;;;;10.74;60.16;93440.06;5017431;28;20445;-77
2020/12/25 03:29:50;;;;;;;21.90;13.40;;;;;;;10.75;60.63;93452.19;5012563;28;20058;-77
2020/12/25 03:32:15;;;;;;;21.42;14.65;;;;;;;10.74;60.68;93455.13;5031937;28;20313;-77
2020/12/25 03:34:41;;;;;;;18.63;12.73;;;;;;;10.65;61.02;93444.47;5029389;28;20045;-77
2020/12/25 03:37:07;;;;;;;20.52;13.90;;;;;;;10.59;61.31;93458.09;5031637;28;20044;-78
2020/12/25 03:39:33;;;;;;;17.80;12.90;;;;;;;10.59;61.77;93443.03;5029867;28;20309;-75
2020/12/25 03:41:58;;;;;;;19.70;13.73;;;;;;;10.60;61.70;93449.88;5030774;28;20236;-76
2020/12/25 03:44:23;;;;;;;17.40;12.55;;;;;;;10.56;62.09;93445.47;5032146;28;20075;-77
2020/12/25 03:46:49;;;;;;;18.98;13.07;;;;;;;10.63;61.91;93441.34;5028543;28;20103;-76
2020/12/25 03:49:15;;;;;;;18.58;12.93;;;;;;;10.72;62.48;93441.44;5028843;28;20049;-76
2020/12/25 03:51:40;;;;;;;23.30;13.68;;;;;;;10.74;61.74;93424.22;5030540;28;20370;-76
2020/12/25 03:54:06;;;;;;;21.55;14.15;;;;;;;10.80;61.36;93428.28;5028127;28;20045;-76
2020/12/25 03:56:31;;;;;;;22.15;14.38;;;;;;;10.78;60.79;93424.38;5030634;28;20037;-76
2020/12/25 03:58:57;;;;;;;23.30;14.65;;;;;;;10.81;61.45;93419.28;5014593;28;20576;-76
2020/12/25 04:01:23;;;;;;;21.13;14.57;;;;;;;10.89;61.25;93422.31;5028158;28;20140;-76
2020/12/25 04:03:48;;;;;;;25.23;15.27;;;;;;;10.93;60.87;93428.56;5029083;28;20031;-77
2020/12/25 04:06:14;;;;;;;24.33;14.60;;;;;;;10.97;60.92;93426.88;5031599;28;20489;-77
2020/12/25 04:08:39;;;;;;;23.67;17.33;;;;;;;11.03;60.60;93441.53;5027739;28;20123;-76
2020/12/25 04:11:05;;;;;;;19.98;14.35;;;;;;;11.06;59.41;93435.66;5031862;28;20128;-76
2020/12/25 04:13:32;;;;;;;22.45;14.48;;;;;;;11.01;59.28;93438.41;5029039;28;20834;-76
2020/12/25 04:16:01;;;;;;;26.30;15.75;;;;;;;10.92;59.24;93440.19;5029181;28;20040;-76
2020/12/25 04:18:27;;;;;;;39.67;23.38;;;;;;;10.81;59.95;93453.63;5015386;28;20036;-76
2020/12/25 04:20:53;;;;;;;60.83;34.15;;;;;;;10.76;60.40;93443.19;5027748;28;20033;-76
2020/12/25 04:23:18;;;;;;;34.75;22.52;;;;;;;10.74;60.34;93453.28;5028972;28;20114;-76
2020/12/25 04:25:44;;;;;;;34.38;21.30;;;;;;;10.70;60.57;93460.22;5031889;28;20132;-76
2020/12/25 04:28:10;;;;;;;29.00;19.95;;;;;;;10.67;60.58;93455.53;5030701;28;20053;-77
2020/12/25 04:30:35;;;;;;;41.58;25.60;;;;;;;10.56;60.51;93443.59;5030907;28;20158;-77
2020/12/25 04:33:01;;;;;;;28.30;20.20;;;;;;;10.58;60.81;93452.03;5032128;28;20140;-77
2020/12/25 04:35:26;;;;;;;24.75;18.38;;;;;;;10.58;61.38;93438.81;5030647;28;20605;-76
2020/12/25 04:37:52;;;;;;;25.33;16.00;;;;;;;10.53;60.92;93443.44;5028866;28;20042;-77
2020/12/25 04:40:18;;;;;;;23.63;14.25;;;;;;;10.58;60.98;93441.47;5030884;28;20049;-77
2020/12/25 04:42:49;;;;;;;21.15;13.63;;;;;;;10.57;61.23;93450.47;5030303;28;20269;-77
2020/12/25 04:45:16;;;;;;;24.20;15.43;;;;;;;10.58;61.35;93457.31;5013956;28;20021;-77
2020/12/25 04:47:43;;;;;;;25.70;16.65;;;;;;;10.59;61.87;93452.81;5029175;28;20037;-77
2020/12/25 04:50:08;;;;;;;22.00;14.95;;;;;;;10.62;61.93;93449.56;5027451;28;20107;-76
2020/12/25 04:52:34;;;;;;;23.10;15.70;;;;;;;10.63;61.84;93451.94;5028603;28;20049;-77
2020/12/25 04:54:59;;;;;;;21.05;14.93;;;;;;;10.61;60.91;93443.50;5029272;28;20072;-77
2020/12/25 04:57:25;;;;;;;21.38;15.27;;;;;;;10.64;60.50;93448.22;5029537;28;20478;-76
2020/12/25 04:59:50;;;;;;;26.60;15.95;;;;;;;10.61;60.08;93451.44;5029790;28;20048;-76
2020/12/25 05:02:16;;;;;;;28.45;18.67;;;;;;;10.54;60.54;93451.06;5029372;28;20080;-77
2020/12/25 05:04:41;;;;;;;53.38;31.50;;;;;;;10.45;60.88;93458.13;5027421;28;20059;-76
2020/12/25 05:07:07;;;;;;;56.58;31.83;;;;;;;10.39;61.04;93454.00;5027587;28;20553;-77
2020/12/25 05:09:33;;;;;;;49.83;30.65;;;;;;;10.41;60.82;93457.13;5014788;28;20103;-76
2020/12/25 05:11:58;;;;;;;31.75;16.98;;;;;;;10.37;60.79;93464.88;5033024;28;20040;-77
2020/12/25 05:14:28;;;;;;;29.30;16.45;;;;;;;10.33;61.40;93463.09;5030111;28;20049;-76
2020/12/25 05:16:56;;;;;;;24.65;15.15;;;;;;;10.35;61.78;93479.47;5027310;28;20102;-76
2020/12/25 05:19:29;;;;;;;28.23;15.68;;;;;;;10.40;61.24;93487.28;5028961;28;20119;-77
2020/12/25 05:21:59;;;;;;;25.45;15.82;;;;;;;10.35;61.61;93479.47;5028080;28;20045;-76
2020/12/25 05:24:26;;;;;;;25.92;16.20;;;;;;;10.31;61.89;93473.97;5028536;28;20481;-76
2020/12/25 05:26:53;;;;;;;23.83;15.13;;;;;;;10.31;61.94;93478.47;5026284;28;20441;-76
2020/12/25 05:29:29;;;;;;;23.45;14.60;;;;;;;10.35;62.32;93463.59;5028827;28;20037;-76
2020/12/25 05:31:54;;;;;;;;;;;;;;;10.26;62.49;93475.94;5014160;28;20037;-77
2020/12/25 05:34:22;;;;;;;25.20;16.02;;;;;;;10.23;62.78;93458.03;5025682;28;20332;-77
2020/12/25 05:36:52;;;;;;;21.35;14.07;;;;;;;10.29;62.61;93467.41;5021180;28;20032;-77
2020/12/25 05:39:25;;;;;;;22.80;15.38;;;;;;;10.21;62.69;93463.63;5032272;28;20033;-77
2020/12/25 05:41:54;;;;;;;23.10;15.38;;;;;;;10.31;62.70;93446.78;5033019;28;20044;-77
2020/12/25 05:44:20;;;;;;;27.25;15.82;;;;;;;10.30;62.66;93445.22;5011405;28;20387;-76
2020/12/25 05:46:47;;;;;;;25.55;16.95;;;;;;;10.32;62.47;93454.41;5028697;28;20040;-77
2020/12/25 05:49:13;;;;;;;25.52;16.58;;;;;;;10.28;62.61;93450.78;5031974;28;20140;-77
2020/12/25 05:51:50;;;;;;;24.77;17.33;;;;;;;10.40;62.47;93456.38;5033113;28;20028;-77
2020/12/25 05:54:20;;;;;;;28.50;17.63;;;;;;;10.43;62.22;93449.69;5035236;28;20056;-78
2020/12/25 05:56:51;;;;;;;28.35;18.25;;;;;;;10.54;61.71;93466.91;5028804;28;20076;-77
2020/12/25 05:59:22;;;;;;;32.45;21.58;;;;;;;10.51;61.56;93467.50;5030919;28;20044;-78
2020/12/25 06:01:48;;;;;;;46.35;25.63;;;;;;;10.55;61.58;93473.78;5017124;28;20040;-76
2020/12/25 06:04:15;;;;;;;46.05;22.48;;;;;;;10.59;61.22;93473.94;5012809;28;20600;-77
2020/12/25 06:06:42;;;;;;;39.10;24.65;;;;;;;10.57;60.97;93479.53;5035859;28;20354;-76
2020/12/25 06:09:15;;;;;;;48.92;25.00;;;;;;;10.63;61.04;93496.06;5034695;28;20482;-76
2020/12/25 06:11:46;;;;;;;54.72;37.53;;;;;;;10.61;61.27;93482.34;5034082;28;20037;-76
2020/12/25 06:14:11;;;;;;;23.48;16.95;;;;;;;10.61;61.16;93488.41;5032753;28;20049;-76
2020/12/25 06:16:59;;;;;;;34.15;20.05;;;;;;;10.61;61.53;93491.06;5031599;28;20094;-76
2020/12/25 06:19:50;;;;;;;24.80;17.10;;;;;;;10.60;61.08;93497.44;5024353;28;20230;-76
2020/12/25 06:22:22;;;;;;;24.10;16.65;;;;;;;10.53;61.56;93494.41;5018004;28;20049;-76
2020/12/25 06:24:51;;;;;;;24.67;14.35;;;;;;;10.67;61.76;93515.53;5033794;28;20591;-76
2020/12/25 06:27:16;;;;;;;29.90;20.00;;;;;;;10.72;62.32;93504.84;5037876;28;20112;-76
2020/12/25 06:29:43;;;;;;;26.75;19.40;;;;;;;10.77;61.43;93518.75;5031470;28;20120;-75
2020/12/25 06:32:10;;;;;;;35.85;23.27;;;;;;;10.69;61.19;93524.75;5030138;28;20037;-75
2020/12/25 06:34:47;;;;;;;34.88;24.05;;;;;;;10.74;61.30;93508.00;5032849;28;20517;-75
2020/12/25 06:37:14;;;;;;;46.20;28.63;;;;;;;10.83;60.95;93527.38;5007300;28;20045;-75
2020/12/25 06:39:50;;;;;;;57.65;29.08;;;;;;;10.87;60.98;93512.47;5009980;28;20018;-75
2020/12/25 06:42:36;;;;;;;39.28;22.35;;;;;;;10.80;60.83;93531.38;5032936;28;20174;-76
2020/12/25 06:45:07;;;;;;;28.83;18.02;;;;;;;10.89;61.36;93509.53;5033233;28;20401;-77
2020/12/25 06:47:37;;;;;;;52.50;22.85;;;;;;;10.92;61.18;93519.50;5038803;28;20063;-77
2020/12/25 06:50:14;;;;;;;39.90;19.05;;;;;;;10.96;60.88;93515.19;5016852;28;20033;-76
2020/12/25 06:52:53;;;;;;;23.17;13.82;;;;;;;11.00;60.47;93516.16;5035046;28;20076;-76
2020/12/25 06:55:38;;;;;;;33.78;18.67;;;;;;;11.09;60.66;93519.69;5034345;28;20426;-76
2020/12/25 06:58:05;;;;;;;22.40;14.80;;;;;;;11.10;60.32;93515.94;5017753;28;20140;-76
2020/12/25 07:00:31;;;;;;;16.55;12.25;;;;;;;11.15;60.44;93484.09;5030765;28;20092;-75
2020/12/25 07:03:09;;;;;;;31.02;20.35;;;;;;;11.25;59.80;93489.94;5033170;28;20017;-76
2020/12/25 07:05:44;;;;;;;17.33;11.32;;;;;;;11.29;60.43;93504.13;5032731;28;20235;-76
2020/12/25 07:08:24;;;;;;;20.15;12.40;;;;;;;11.19;59.78;93499.06;5035402;28;20052;-75
2020/12/25 07:10:58;;;;;;;16.50;11.70;;;;;;;11.31;60.31;93495.91;5030586;28;20112;-75
2020/12/25 07:13:24;;;;;;;21.85;14.48;;;;;;;11.21;60.17;93493.47;5029968;28;20174;-76
2020/12/25 07:15:50;;;;;;;18.75;12.25;;;;;;;11.34;61.04;93497.19;5035693;28;20107;-75
2020/12/25 07:18:15;;;;;;;20.33;13.30;;;;;;;11.40;60.41;93504.69;5035438;28;20129;-76
2020/12/25 07:20:41;;;;;;;24.55;15.45;;;;;;;11.47;59.92;93489.19;5033809;28;20555;-76
2020/12/25 07:23:07;;;;;;;25.15;15.82;;;;;;;11.56;60.33;93483.94;5033810;28;20481;-76
2020/12/25 07:25:40;;;;;;;36.83;21.60;;;;;;;11.64;60.27;93489.28;5032255;28;20123;-76
2020/12/25 07:28:05;;;;;;;53.53;30.48;;;;;;;11.78;59.75;93483.19;5030626;28;20036;-76
2020/12/25 07:30:31;;;;;;;51.67;31.08;;;;;;;11.87;59.40;93498.03;5030103;28;20013;-76
2020/12/25 07:32:56;;;;;;;49.83;27.33;;;;;;;11.94;60.56;93492.28;5031001;28;20160;-76
2020/12/25 07:35:22;;;;;;;37.25;23.13;;;;;;;12.01;59.49;93492.66;5035490;28;20048;-76
2020/12/25 07:37:55;;;;;;;36.72;25.33;;;;;;;12.16;59.48;93513.44;5029954;28;20790;-76
2020/12/25 07:40:20;;;;;;;35.85;23.25;;;;;;;12.27;58.30;93496.16;5029834;28;20045;-76
2020/12/25 07:42:46;;;;;;;32.42;24.33;;;;;;;12.35;57.83;93506.03;5026294;28;20052;-76
2020/12/25 07:45:12;;;;;;;25.90;19.67;;;;;;;12.50;58.96;93500.34;5032586;28;20615;-76
2020/12/25 07:47:41;;;;;;;38.50;25.33;;;;;;;12.53;58.78;93509.53;5025848;28;20053;-76
2020/12/25 07:50:06;;;;;;;32.88;18.67;;;;;;;12.62;58.42;93520.16;5013949;28;20068;-76
2020/12/25 07:52:32;;;;;;;38.85;24.83;;;;;;;12.64;57.85;93517.97;5017369;28;21249;-76
2020/12/25 07:54:57;;;;;;;30.77;20.13;;;;;;;12.68;57.58;93500.38;5026883;28;20039;-76
2020/12/25 07:57:23;;;;;;;32.33;21.33;;;;;;;12.78;57.14;93526.59;5027982;28;20643;-76
2020/12/25 07:59:50;;;;;;;37.78;21.30;;;;;;;12.86;56.94;93523.19;5025874;28;20281;-76
2020/12/25 08:02:16;;;;;;;29.52;20.70;;;;;;;12.84;56.87;93515.56;5027480;28;20072;-76
2020/12/25 08:04:45;;;;;;;52.72;35.20;;;;;;;13.01;56.67;93520.09;5026589;28;20122;-76
2020/12/25 08:07:11;;;;;;;27.45;20.42;;;;;;;13.11;56.26;93517.16;5030281;28;20044;-76
2020/12/25 08:09:38;;;;;;;30.88;20.75;;;;;;;13.08;56.12;93524.94;5027286;28;20540;-76
2020/12/25 08:12:13;;;;;;;31.65;20.98;;;;;;;13.07;56.05;93516.22;5027740;28;20023;-77
2020/12/25 08:14:42;;;;;;;33.00;23.30;;;;;;;13.06;56.75;93509.34;5026216;28;20119;-76
2020/12/25 08:17:09;;;;;;;30.05;21.60;;;;;;;13.14;56.11;93511.25;5027104;28;20388;-76
2020/12/25 08:19:35;;;;;;;27.98;19.13;;;;;;;13.06;56.06;93495.28;5028375;28;20044;-76
2020/12/25 08:22:10;;;;;;;29.80;21.13;;;;;;;13.19;56.90;93526.25;5026557;28;20037;-76
2020/12/25 08:24:36;;;;;;;41.63;25.38;;;;;;;13.21;56.57;93511.56;5006490;28;20080;-76
2020/12/25 08:27:04;;;;;;;32.95;21.00;;;;;;;13.32;56.07;93531.41;5029204;28;20045;-76
2020/12/25 08:29:31;;;;;;;32.65;21.65;;;;;;;13.42;56.52;93511.75;5025659;28;20561;-76
2020/12/25 08:32:09;;;;;;;32.05;23.35;;;;;;;13.45;55.96;93488.00;5025468;28;20559;-75
2020/12/25 08:34:35;;;;;;;44.20;27.20;;;;;;;13.41;55.65;93518.91;5024813;28;20053;-75
2020/12/25 08:37:04;;;;;;;39.70;26.13;;;;;;;13.55;55.83;93512.66;5028758;28;20566;-76
2020/12/25 08:39:33;;;;;;;35.83;26.20;;;;;;;13.52;55.85;93502.69;5031337;28;20033;-75
2020/12/25 08:41:59;;;;;;;41.67;28.58;;;;;;;13.68;55.55;93511.72;5008041;28;20493;-76
2020/12/25 08:44:25;;;;;;;40.42;27.27;;;;;;;13.75;55.54;93502.19;5005096;28;20069;-75
2020/12/25 08:47:05;;;;;;;43.13;28.23;;;;;;;13.80;54.86;93503.88;5016339;28;20032;-75
2020/12/25 08:49:30;;;;;;;86.05;49.85;;;;;;;13.91;54.68;93507.78;5030004;28;20051;-75
2020/12/25 08:51:56;;;;;;;63.03;41.17;;;;;;;14.04;55.11;93514.78;5026110;28;20026;-75
2020/12/25 08:54:26;;;;;;;43.22;28.98;;;;;;;14.06;54.18;93517.91;5009170;28;20048;-75
2020/12/25 08:56:52;;;;;;;42.95;27.77;;;;;;;14.17;54.05;93511.16;5022978;28;20047;-75
2020/12/25 08:59:20;;;;;;;40.38;28.70;;;;;;;14.08;53.89;93498.97;5026997;28;20476;-75
2020/12/25 09:01:47;;;;;;;43.00;29.20;;;;;;;14.10;53.82;93508.22;5026080;28;20076;-75
2020/12/25 09:04:15;;;;;;;41.83;29.42;;;;;;;14.05;54.12;93467.75;5007268;28;20187;-75
2020/12/25 09:06:41;;;;;;;39.38;30.08;;;;;;;13.87;54.94;93467.81;5025611;28;20063;-75
2020/12/25 09:09:07;;;;;;;42.63;26.77;;;;;;;13.88;55.10;93458.72;5029454;28;20026;-75
2020/12/25 09:11:32;;;;;;;31.45;24.98;;;;;;;13.87;54.72;93461.72;5028271;28;20095;-75
2020/12/25 09:13:58;;;;;;;37.85;24.52;;;;;;;13.98;55.04;93462.13;5030721;28;20044;-76
2020/12/25 09:16:23;;;;;;;42.55;27.50;;;;;;;13.98;54.73;93478.06;5030121;28;20578;-75
2020/12/25 09:18:49;;;;;;;36.17;24.30;;;;;;;13.99;54.09;93453.84;5018466;28;20062;-75
2020/12/25 09:21:15;;;;;;;41.40;25.02;;;;;;;14.12;53.71;93474.13;5032283;28;20467;-75
2020/12/25 09:23:42;;;;;;;39.80;26.55;;;;;;;14.17;53.95;93455.34;5035054;28;20025;-76
2020/12/25 09:26:09;;;;;;;50.95;28.92;;;;;;;14.13;54.26;93470.38;5028565;28;20749;-76
2020/12/25 09:28:35;;;;;;;37.50;23.90;;;;;;;14.16;54.42;93442.38;5030398;28;20681;-75
2020/12/25 09:31:04;;;;;;;42.00;27.42;;;;;;;14.15;53.61;93446.91;5026503;28;20079;-75
2020/12/25 09:33:29;;;;;;;37.70;25.67;;;;;;;14.19;53.24;93437.22;5031538;28;20542;-76
2020/12/25 09:35:55;;;;;;;33.85;21.35;;;;;;;14.31;53.08;93439.22;5024924;28;20120;-75
2020/12/25 09:38:20;;;;;;;32.63;22.80;;;;;;;14.42;52.95;93442.28;5028692;28;20356;-75
2020/12/25 09:40:52;;;;;;;29.50;20.95;;;;;;;14.52;52.82;93423.31;5024596;28;20489;-75
2020/12/25 09:43:18;;;;;;;27.52;20.83;;;;;;;14.55;53.33;93430.66;5009811;28;20426;-75
2020/12/25 09:45:44;;;;;;;24.58;16.35;;;;;;;14.71;51.94;93436.97;5026499;28;20060;-75
2020/12/25 09:48:10;;;;;;;16.55;12.88;;;;;;;14.77;50.73;93425.03;5030467;28;20116;-75
2020/12/25 09:50:35;;;;;;;22.23;15.27;;;;;;;14.85;49.96;93408.28;5013847;28;20045;-75
2020/12/25 09:53:01;;;;;;;23.83;16.63;;;;;;;14.89;49.63;93419.03;5024043;28;20048;-75
2020/12/25 09:55:27;;;;;;;28.60;19.25;;;;;;;14.99;49.81;93411.44;5030409;28;20037;-76
2020/12/25 09:57:53;;;;;;;24.67;16.90;;;;;;;15.04;49.85;93410.47;5027227;28;20038;-75
2020/12/25 10:00:19;;;;;;;20.38;14.73;;;;;;;15.12;49.56;93414.94;5027661;28;20535;-76
2020/12/25 10:02:45;;;;;;;25.13;16.52;;;;;;;15.22;49.21;93403.13;5006378;28;20476;-75
2020/12/25 10:05:12;;;;;;;13.98;11.00;;;;;;;15.12;48.40;93394.44;5028505;28;20052;-75
2020/12/25 10:07:38;;;;;;;19.85;12.98;;;;;;;15.21;48.63;93412.19;5007194;28;20068;-77
2020/12/25 10:10:06;;;;;;;18.02;12.45;;;;;;;15.16;48.13;93384.69;5028354;28;20040;-76
2020/12/25 10:12:31;;;;;;;21.60;14.27;;;;;;;15.20;48.13;93379.47;5023446;28;20474;-75
2020/12/25 10:14:57;;;;;;;19.13;13.20;;;;;;;15.20;48.21;93387.47;5016598;28;20063;-75
2020/12/25 10:17:22;;;;;;;18.25;15.02;;;;;;;15.33;48.19;93377.66;5029780;28;20044;-74
2020/12/25 10:19:48;;;;;;;17.42;11.93;;;;;;;15.35;47.89;93375.44;5025918;28;20057;-75
2020/12/25 10:22:14;;;;;;;19.65;11.98;;;;;;;15.29;48.33;93371.44;5026401;28;20045;-75
2020/12/25 10:24:39;;;;;;;25.17;12.38;;;;;;;15.30;47.95;93364.97;5015233;28;20079;-75
2020/12/25 10:27:06;;;;;;;17.33;12.35;;;;;;;15.26;48.07;93354.22;5029823;28;25135;-75
2020/12/25 10:29:31;;;;;;;19.33;12.95;;;;;;;15.25;48.63;93359.88;5026939;28;20164;-75
2020/12/25 10:31:57;;;;;;;16.30;12.70;;;;;;;15.37;48.08;93362.56;5024125;28;20045;-75
2020/12/25 10:34:23;;;;;;;20.45;13.35;;;;;;;15.37;48.11;93347.38;5029184;28;20075;-75
2020/12/25 10:36:49;;;;;;;19.13;13.50;;;;;;;15.41;48.38;93342.16;5025083;28;20473;-75
2020/12/25 10:39:15;;;;;;;24.08;16.90;;;;;;;15.43;48.04;93343.41;5028272;28;20037;-74
2020/12/25 10:41:40;;;;;;;19.45;14.25;;;;;;;15.45;47.91;93349.16;5025871;28;20114;-75
2020/12/25 10:44:07;;;;;;;18.95;11.93;;;;;;;15.54;48.14;93349.88;5025594;28;20048;-75
2020/12/25 10:46:33;;;;;;;19.38;13.07;;;;;;;15.67;47.22;93349.94;5026864;28;20048;-75
2020/12/25 10:48:58;;;;;;;19.38;13.77;;;;;;;15.67;47.38;93334.72;5032071;28;20118;-75
2020/12/25 10:51:24;;;;;;;17.52;11.48;;;;;;;15.71;47.33;93332.16;5026305;28;20040;-75
2020/12/25 10:53:49;;;;;;;16.88;12.55;;;;;;;15.90;47.32;93335.84;5024905;28;20080;-75
2020/12/25 10:56:31;;;;;;;21.63;12.82;;;;;;;16.12;46.56;93323.22;5024370;28;20869;-75
2020/12/25 10:58:57;;;;;;;16.60;13.23;;;;;;;16.23;45.98;93329.63;5027961;28;20414;-75
2020/12/25 11:01:27;;;;;;;20.77;15.25;;;;;;;16.42;46.34;93327.16;5020506;28;20049;-75
2020/12/25 11:03:53;;;;;;;23.13;13.45;;;;;;;16.54;45.82;93321.03;5027142;28;20642;-75
2020/12/25 11:06:19;;;;;;;19.83;14.02;;;;;;;16.54;45.41;93313.03;5009506;28;20098;-75
2020/12/25 11:08:48;;;;;;;21.73;13.55;;;;;;;16.60;45.55;93322.41;5028748;28;20042;-75
2020/12/25 11:11:28;;;;;;;20.13;16.95;;;;;;;16.76;46.16;93305.34;5023335;28;20039;-75
2020/12/25 11:13:54;;;;;;;17.98;14.05;;;;;;;16.81;45.49;93291.75;5009643;28;20069;-75
2020/12/25 11:16:21;;;;;;;24.10;15.25;;;;;;;16.84;44.85;93304.44;5002287;28;20071;-75
2020/12/25 11:18:46;;;;;;;20.35;13.68;;;;;;;17.04;44.36;93300.03;5029433;28;20036;-75